WMKN/TGG METAR and TAF weather

Enter ICAO airport designator
Station Type Date Time Source
WMKN METAR 2021/04/17 02:00 UTC NOAA

WMKN 170200Z VRB03KT 9999 FEW018 30/25 Q1013


Station Type Date Time Source
WMKN Decoded METAR 2021/04/17 02:00 UTC NOAA

Station name not available
Apr 16, 2021 - 10:00 PM EDT / 2021.04.17 0200 UTC
Wind: Variable at 3 MPH (3 KT):0
Visibility: greater than 7 mile(s):0
Sky conditions: mostly clear
Temperature: 86 F (30 C)
Heat index: 96.8 F (36.0 C):1
Dew Point: 77 F (25 C)
Relative Humidity: 74%
Pressure (altimeter): 29.91 in. Hg (1013 hPa)
ob: WMKN 170200Z VRB03KT 9999 FEW018 30/25 Q1013
cycle: 2

Station Type Date Time Source
WMKN TAF 2021/04/16 18:00 UTC NOAA

TAF WMKN 161700Z 1618/1718 VRB03KT 9999 FEW022
BECMG 1704/1705 05006KT
BECMG 1711/1712 VRB03KT

Example: see airport list